Terminal Aerodrome Forecast
Issued by NWS

Home | Current Version | Previous Version | Text Only | Print | Product List | Glossary Off
Versions: 1 2 3 4 5 6 7 8 9 10 11 12 13 14 15 16 17 18 19 20 21 22 23 24 25 26 27 28 29 30 31 32

000
FTUS43 KLOT 222000 AAA
TAFDPA
TAF AMD
KDPA 222002Z 2220/2318 22015G21KT P6SM FEW035 SCT200
     FM230100 24014G20KT P6SM VCTS BKN050CB
     FM230400 34010KT P6SM BKN040
     FM230600 03012G17KT P6SM FEW010 BKN030
     FM231400 02014G20KT P6SM BKN200=

USA.gov is the U.S. government's official web portal to all federal, state and local government web resources and services.